Aviation Digital Data Service (ADDS)

Output produced by METARs form (2337 UTC 15 December 2017)
found at http://www.aviationweather.gov/adds/metars/
 
KROW 152251Z 17013KT 10SM CLR 12/M06 A3012 RMK AO2 SLP190 T01171056
KROW 152151Z 18013KT 10SM CLR 12/M05 A3014 RMK AO2 SLP193 T01221050
KROW 152051Z 18013KT 10SM CLR 12/M05 A3016 RMK AO2 SLP201 T01221050 56041
KROW 151951Z 18011KT 10SM CLR 12/M05 A3020 RMK AO2 SLP213 T01171050
KROW 151851Z 21009G16KT 10SM CLR 11/M04 A3025 RMK AO2 SLP228 T01061044
KROW 151751Z 20012KT 10SM CLR 09/M04 A3030 RMK AO2 SLP245 T00891039 10089 21072 58014
KROW 151651Z 00000KT 10SM CLR 04/M06 A3033 RMK AO2 SLP260 T00441056
KROW 151551Z 00000KT 10SM CLR 01/M07 A3034 RMK AO2 SLP271 T00061067
KROW 151451Z 00000KT 10SM CLR M03/M08 A3034 RMK AO2 SLP277 T10281083 50003
KROW 151351Z 00000KT 10SM CLR M07/M10 A3035 RMK AO2 SLP284 T10671100
KROW 151251Z 00000KT 10SM CLR M03/M07 A3035 RMK AO2 SLP278 T10331072
KROW 151151Z 36003KT 10SM CLR M03/M08 A3033 RMK AO2 SLP269 T10331078 10028 21039 58001
KROW 151051Z 28004KT 10SM CLR M03/M07 A3033 RMK AO2 SLP262 T10281072
KROW 150951Z 29005KT 10SM CLR M02/M07 A3034 RMK AO2 SLP263 T10171067
KROW 150851Z 29005KT 10SM CLR M01/M07 A3034 RMK AO2 SLP261 T10111067 51002
KROW 150751Z 32005KT 10SM CLR 00/M06 A3033 RMK AO2 SLP259 T00001061
KROW 150651Z 32006KT 10SM CLR 01/M07 A3033 RMK AO2 SLP258 T00111072 401281039
KROW 150551Z 31005KT 10SM SCT095 03/M07 A3033 RMK AO2 SLP257 T00281067 10078 20028 51023
KROW 150451Z 05003KT 10SM OVC100 04/M07 A3031 RMK AO2 SLP251 T00391067
KROW 150351Z 05004KT 10SM CLR 03/M07 A3029 RMK AO2 SLP250 T00331072
KROW 150251Z 05004KT 10SM CLR 03/M07 A3025 RMK AO2 SLP245 T00331067 51034
KROW 150151Z 05006KT 10SM CLR 05/M07 A3021 RMK AO2 SLP231 T00501067
KROW 150051Z 02007KT 10SM CLR 06/M07 A3019 RMK AO2 SLP223 T00561067
KROW 142351Z 06007KT 10SM CLR 08/M07 A3014 RMK AO2 SLP202 T00781072 10128 20078 53003
KROW 152334Z 1600/1624 17011KT P6SM SKC 
     FM160100 VRB05KT P6SM SKC 
     FM161900 17011KT P6SM SKC